sensor_id;sensor_type;location;lat;lon;timestamp;pressure;altitude;pressure_sealevel;temperature;humidity
68075;BME280;54864;52.002;5.468;2022-08-21T00:00:06;101530.53;;;17.36;66.33
68075;BME280;54864;52.002;5.468;2022-08-21T00:01:11;101528.16;;;17.31;66.86
68075;BME280;54864;52.002;5.468;2022-08-21T00:02:17;101543.78;;;17.37;66.94
68075;BME280;54864;52.002;5.468;2022-08-21T00:03:18;101534.63;;;17.41;66.73
68075;BME280;54864;52.002;5.468;2022-08-21T00:04:21;101522.16;;;17.28;66.76
68075;BME280;54864;52.002;5.468;2022-08-21T00:05:24;101525.22;;;17.36;66.81
68075;BME280;54864;52.002;5.468;2022-08-21T00:06:34;101534.06;;;17.36;66.71
68075;BME280;54864;52.002;5.468;2022-08-21T00:07:35;101537.47;;;17.38;66.63
68075;BME280;54864;52.002;5.468;2022-08-21T00:08:38;101540.63;;;17.31;66.95
68075;BME280;54864;52.002;5.468;2022-08-21T00:09:39;101521.78;;;17.20;67.25
68075;BME280;54864;52.002;5.468;2022-08-21T00:10:42;101528.06;;;17.19;67.18
68075;BME280;54864;52.002;5.468;2022-08-21T00:11:49;101544.25;;;17.16;67.42
68075;BME280;54864;52.002;5.468;2022-08-21T00:13:09;101536.91;;;17.05;67.70
68075;BME280;54864;52.002;5.468;2022-08-21T00:14:20;101542.91;;;17.08;67.81
68075;BME280;54864;52.002;5.468;2022-08-21T00:15:24;101530.72;;;17.04;67.95
68075;BME280;54864;52.002;5.468;2022-08-21T00:16:27;101533.78;;;17.13;67.77
68075;BME280;54864;52.002;5.468;2022-08-21T00:17:28;101539.00;;;17.14;67.45
68075;BME280;54864;52.002;5.468;2022-08-21T00:18:30;101533.00;;;17.10;67.55
68075;BME280;54864;52.002;5.468;2022-08-21T00:19:31;101521.50;;;17.10;67.28
68075;BME280;54864;52.002;5.468;2022-08-21T00:20:34;101526.16;;;17.21;67.21
68075;BME280;54864;52.002;5.468;2022-08-21T00:21:35;101539.19;;;17.25;67.21
68075;BME280;54864;52.002;5.468;2022-08-21T00:22:38;101520.94;;;17.19;67.24
68075;BME280;54864;52.002;5.468;2022-08-21T00:23:40;101534.72;;;17.26;67.12
68075;BME280;54864;52.002;5.468;2022-08-21T00:24:42;101543.09;;;17.20;67.40
68075;BME280;54864;52.002;5.468;2022-08-21T00:25:44;101539.47;;;17.21;67.19
68075;BME280;54864;52.002;5.468;2022-08-21T00:26:47;101537.69;;;17.21;67.31
68075;BME280;54864;52.002;5.468;2022-08-21T00:27:48;101529.38;;;17.11;67.17
68075;BME280;54864;52.002;5.468;2022-08-21T00:28:50;101529.75;;;17.05;67.64
68075;BME280;54864;52.002;5.468;2022-08-21T00:29:53;101524.06;;;17.11;67.66
68075;BME280;54864;52.002;5.468;2022-08-21T00:30:55;101536.63;;;17.24;67.02
68075;BME280;54864;52.002;5.468;2022-08-21T00:31:56;101536.63;;;17.24;67.14
68075;BME280;54864;52.002;5.468;2022-08-21T00:32:59;101542.06;;;17.22;67.15
68075;BME280;54864;52.002;5.468;2022-08-21T00:34:00;101528.81;;;17.06;66.96
68075;BME280;54864;52.002;5.468;2022-08-21T00:35:03;101533.97;;;17.09;67.14
68075;BME280;54864;52.002;5.468;2022-08-21T00:36:05;101535.47;;;17.14;67.17
68075;BME280;54864;52.002;5.468;2022-08-21T00:37:07;101528.63;;;17.09;67.10
68075;BME280;54864;52.002;5.468;2022-08-21T00:38:09;101520.44;;;16.98;67.17
68075;BME280;54864;52.002;5.468;2022-08-21T00:39:11;101520.81;;;16.92;67.35
68075;BME280;54864;52.002;5.468;2022-08-21T00:40:15;101517.59;;;17.01;67.57
68075;BME280;54864;52.002;5.468;2022-08-21T00:41:18;101515.38;;;16.94;67.64
68075;BME280;54864;52.002;5.468;2022-08-21T00:42:19;101522.63;;;17.06;67.54
68075;BME280;54864;52.002;5.468;2022-08-21T00:43:23;101525.97;;;17.09;67.27
68075;BME280;54864;52.002;5.468;2022-08-21T00:44:27;101530.81;;;17.17;67.31
68075;BME280;54864;52.002;5.468;2022-08-21T00:45:33;101518.44;;;17.02;67.05
68075;BME280;54864;52.002;5.468;2022-08-21T00:46:35;101532.34;;;17.07;67.49
68075;BME280;54864;52.002;5.468;2022-08-21T00:47:37;101523.97;;;16.99;67.55
68075;BME280;54864;52.002;5.468;2022-08-21T00:48:38;101521.75;;;16.91;67.88
68075;BME280;54864;52.002;5.468;2022-08-21T00:49:40;101519.69;;;16.96;67.69
68075;BME280;54864;52.002;5.468;2022-08-21T00:50:44;101528.91;;;17.05;67.50
68075;BME280;54864;52.002;5.468;2022-08-21T00:51:50;101516.63;;;17.02;67.58
68075;BME280;54864;52.002;5.468;2022-08-21T00:52:52;101527.28;;;17.02;67.87
68075;BME280;54864;52.002;5.468;2022-08-21T00:53:57;101534.44;;;17.02;67.68
68075;BME280;54864;52.002;5.468;2022-08-21T00:55:01;101530.72;;;17.04;67.65
68075;BME280;54864;52.002;5.468;2022-08-21T00:56:06;101540.44;;;17.05;67.74
68075;BME280;54864;52.002;5.468;2022-08-21T00:57:13;101533.66;;;17.00;67.70
68075;BME280;54864;52.002;5.468;2022-08-21T00:58:17;101525.00;;;16.96;67.59
68075;BME280;54864;52.002;5.468;2022-08-21T00:59:20;101533.94;;;16.95;67.86
68075;BME280;54864;52.002;5.468;2022-08-21T01:00:26;101528.53;;;16.97;67.60
68075;BME280;54864;52.002;5.468;2022-08-21T01:01:30;101519.09;;;16.91;67.48
68075;BME280;54864;52.002;5.468;2022-08-21T01:02:38;101526.44;;;17.02;67.57
68075;BME280;54864;52.002;5.468;2022-08-21T01:03:41;101519.56;;;16.98;67.45
68075;BME280;54864;52.002;5.468;2022-08-21T01:04:43;101527.47;;;16.99;67.51
68075;BME280;54864;52.002;5.468;2022-08-21T01:05:45;101523.88;;;17.00;67.61
68075;BME280;54864;52.002;5.468;2022-08-21T01:06:47;101526.72;;;16.97;67.54
68075;BME280;54864;52.002;5.468;2022-08-21T01:07:47;101519.50;;;16.99;67.69
68075;BME280;54864;52.002;5.468;2022-08-21T01:08:49;101521.97;;;17.02;67.56
68075;BME280;54864;52.002;5.468;2022-08-21T01:09:51;101518.31;;;16.89;68.02
68075;BME280;54864;52.002;5.468;2022-08-21T01:10:53;101526.91;;;16.94;67.88
68075;BME280;54864;52.002;5.468;2022-08-21T01:11:55;101523.56;;;16.91;67.83
68075;BME280;54864;52.002;5.468;2022-08-21T01:12:57;101517.28;;;16.92;68.20
68075;BME280;54864;52.002;5.468;2022-08-21T01:13:58;101513.34;;;16.83;67.93
68075;BME280;54864;52.002;5.468;2022-08-21T01:15:02;101520.00;;;16.90;68.14
68075;BME280;54864;52.002;5.468;2022-08-21T01:16:08;101511.16;;;16.90;67.90
68075;BME280;54864;52.002;5.468;2022-08-21T01:17:14;101527.47;;;16.99;67.73
68075;BME280;54864;52.002;5.468;2022-08-21T01:18:16;101505.25;;;16.85;67.71
68075;BME280;54864;52.002;5.468;2022-08-21T01:19:20;101510.41;;;16.88;67.80
68075;BME280;54864;52.002;5.468;2022-08-21T01:20:21;101518.75;;;16.82;68.11
68075;BME280;54864;52.002;5.468;2022-08-21T01:21:25;101521.06;;;16.88;68.03
68075;BME280;54864;52.002;5.468;2022-08-21T01:22:27;101519.25;;;16.88;68.17
68075;BME280;54864;52.002;5.468;2022-08-21T01:23:29;101527.25;;;16.88;68.10
68075;BME280;54864;52.002;5.468;2022-08-21T01:24:30;101525.34;;;16.90;68.06
68075;BME280;54864;52.002;5.468;2022-08-21T01:25:33;101513.91;;;16.88;67.60
68075;BME280;54864;52.002;5.468;2022-08-21T01:26:35;101524.16;;;16.96;67.74
68075;BME280;54864;52.002;5.468;2022-08-21T01:27:37;101516.69;;;16.87;67.91
68075;BME280;54864;52.002;5.468;2022-08-21T01:28:40;101525.94;;;16.95;67.87
68075;BME280;54864;52.002;5.468;2022-08-21T01:29:46;101528.91;;;16.91;68.21
68075;BME280;54864;52.002;5.468;2022-08-21T01:30:51;101524.16;;;16.96;67.86
68075;BME280;54864;52.002;5.468;2022-08-21T01:31:55;101513.34;;;16.83;68.11
68075;BME280;54864;52.002;5.468;2022-08-21T01:32:56;101525.84;;;16.97;67.95
68075;BME280;54864;52.002;5.468;2022-08-21T01:33:58;101523.38;;;16.94;68.08
68075;BME280;54864;52.002;5.468;2022-08-21T01:35:00;101521.81;;;16.90;68.18
68075;BME280;54864;52.002;5.468;2022-08-21T01:36:02;101526.63;;;16.99;68.04
68075;BME280;54864;52.002;5.468;2022-08-21T01:37:05;101527.75;;;16.95;67.92
68075;BME280;54864;52.002;5.468;2022-08-21T01:38:07;101525.13;;;16.79;68.35
68075;BME280;54864;52.002;5.468;2022-08-21T01:39:09;101525.19;;;16.93;68.18
68075;BME280;54864;52.002;5.468;2022-08-21T01:40:12;101521.91;;;16.88;68.18
68075;BME280;54864;52.002;5.468;2022-08-21T01:41:16;101513.53;;;16.80;68.14
68075;BME280;54864;52.002;5.468;2022-08-21T01:42:19;101523.63;;;16.89;68.01
68075;BME280;54864;52.002;5.468;2022-08-21T01:43:19;101520.00;;;16.90;67.87
68075;BME280;54864;52.002;5.468;2022-08-21T01:44:22;101528.09;;;16.89;67.80
68075;BME280;54864;52.002;5.468;2022-08-21T01:45:23;101523.72;;;16.88;67.62
68075;BME280;54864;52.002;5.468;2022-08-21T01:46:25;101520.81;;;16.92;68.00
68075;BME280;54864;52.002;5.468;2022-08-21T01:47:26;101526.28;;;16.89;68.14
68075;BME280;54864;52.002;5.468;2022-08-21T01:48:28;101514.09;;;16.85;68.27
68075;BME280;54864;52.002;5.468;2022-08-21T01:49:29;101513.78;;;16.91;67.83
68075;BME280;54864;52.002;5.468;2022-08-21T01:50:31;101525.84;;;16.97;67.91
68075;BME280;54864;52.002;5.468;2022-08-21T01:51:31;101519.78;;;16.95;67.93
68075;BME280;54864;52.002;5.468;2022-08-21T01:52:35;101516.25;;;16.94;67.98
68075;BME280;54864;52.002;5.468;2022-08-21T01:53:36;101520.72;;;16.94;67.91
68075;BME280;54864;52.002;5.468;2022-08-21T01:54:38;101522.63;;;16.92;68.10
68075;BME280;54864;52.002;5.468;2022-08-21T01:55:40;101518.63;;;16.99;67.97
68075;BME280;54864;52.002;5.468;2022-08-21T01:56:45;101525.09;;;16.95;68.01
68075;BME280;54864;52.002;5.468;2022-08-21T01:57:48;101510.31;;;16.89;68.03
68075;BME280;54864;52.002;5.468;2022-08-21T01:58:50;101517.81;;;16.83;68.36
68075;BME280;54864;52.002;5.468;2022-08-21T01:59:51;101505.53;;;16.80;68.22
68075;BME280;54864;52.002;5.468;2022-08-21T02:00:53;101510.59;;;16.85;68.31
68075;BME280;54864;52.002;5.468;2022-08-21T02:01:54;101517.63;;;16.86;68.55
68075;BME280;54864;52.002;5.468;2022-08-21T02:02:56;101505.72;;;16.77;68.45
68075;BME280;54864;52.002;5.468;2022-08-21T02:03:56;101516.88;;;16.84;68.37
68075;BME280;54864;52.002;5.468;2022-08-21T02:04:59;101513.25;;;16.85;68.12
68075;BME280;54864;52.002;5.468;2022-08-21T02:06:00;101514.38;;;16.80;68.09
68075;BME280;54864;52.002;5.468;2022-08-21T02:07:03;101512.09;;;16.74;68.51
68075;BME280;54864;52.002;5.468;2022-08-21T02:08:06;101510.88;;;16.80;68.38
68075;BME280;54864;52.002;5.468;2022-08-21T02:09:10;101516.97;;;16.82;68.11
68075;BME280;54864;52.002;5.468;2022-08-21T02:10:15;101508.97;;;16.82;68.12
68075;BME280;54864;52.002;5.468;2022-08-21T02:11:19;101512.59;;;16.81;68.07
68075;BME280;54864;52.002;5.468;2022-08-21T02:12:21;101502.88;;;16.80;67.97
68075;BME280;54864;52.002;5.468;2022-08-21T02:13:22;101508.13;;;16.82;67.94
68075;BME280;54864;52.002;5.468;2022-08-21T02:14:24;101493.72;;;16.70;68.20
68075;BME280;54864;52.002;5.468;2022-08-21T02:15:25;101506.69;;;16.76;68.19
68075;BME280;54864;52.002;5.468;2022-08-21T02:16:26;101506.59;;;16.77;68.29
68075;BME280;54864;52.002;5.468;2022-08-21T02:17:27;101497.44;;;16.67;68.39
68075;BME280;54864;52.002;5.468;2022-08-21T02:18:38;101508.66;;;16.72;68.27
68075;BME280;54864;52.002;5.468;2022-08-21T02:19:40;101495.53;;;16.69;68.14
68075;BME280;54864;52.002;5.468;2022-08-21T02:20:44;101503.34;;;16.72;68.21
68075;BME280;54864;52.002;5.468;2022-08-21T02:21:47;101501.44;;;16.74;67.99
68075;BME280;54864;52.002;5.468;2022-08-21T02:22:47;101506.84;;;16.73;68.12
68075;BME280;54864;52.002;5.468;2022-08-21T02:23:51;101500.69;;;16.72;67.93
68075;BME280;54864;52.002;5.468;2022-08-21T02:24:51;101500.50;;;16.75;67.90
68075;BME280;54864;52.002;5.468;2022-08-21T02:25:53;101499.81;;;16.72;68.00
68075;BME280;54864;52.002;5.468;2022-08-21T02:26:54;101499.25;;;16.67;67.99
68075;BME280;54864;52.002;5.468;2022-08-21T02:27:57;101495.78;;;16.65;68.24
68075;BME280;54864;52.002;5.468;2022-08-21T02:28:59;101499.16;;;16.68;68.35
68075;BME280;54864;52.002;5.468;2022-08-21T02:30:01;101512.19;;;16.73;68.01
68075;BME280;54864;52.002;5.468;2022-08-21T02:31:02;101503.53;;;16.69;68.19
68075;BME280;54864;52.002;5.468;2022-08-21T02:32:04;101503.78;;;16.65;68.38
68075;BME280;54864;52.002;5.468;2022-08-21T02:33:05;101493.66;;;16.56;68.52
68075;BME280;54864;52.002;5.468;2022-08-21T02:34:10;101500.03;;;16.53;68.75
68075;BME280;54864;52.002;5.468;2022-08-21T02:35:11;101500.19;;;16.66;68.46
68075;BME280;54864;52.002;5.468;2022-08-21T02:36:13;101492.53;;;16.60;68.57
68075;BME280;54864;52.002;5.468;2022-08-21T02:37:14;101495.00;;;16.63;68.55
68075;BME280;54864;52.002;5.468;2022-08-21T02:38:19;101484.63;;;16.58;68.38
68075;BME280;54864;52.002;5.468;2022-08-21T02:39:22;101501.72;;;16.70;68.18
68075;BME280;54864;52.002;5.468;2022-08-21T02:40:27;101490.88;;;16.73;68.25
68075;BME280;54864;52.002;5.468;2022-08-21T02:41:30;101495.72;;;16.66;68.52
68075;BME280;54864;52.002;5.468;2022-08-21T02:42:32;101491.34;;;16.65;68.55
68075;BME280;54864;52.002;5.468;2022-08-21T02:43:33;101475.88;;;16.56;68.49
68075;BME280;54864;52.002;5.468;2022-08-21T02:44:35;101493.91;;;16.67;68.39
68075;BME280;54864;52.002;5.468;2022-08-21T02:45:37;101488.75;;;16.64;68.68
68075;BME280;54864;52.002;5.468;2022-08-21T02:46:40;101474.00;;;16.58;68.85
68075;BME280;54864;52.002;5.468;2022-08-21T02:47:47;101482.41;;;16.66;68.61
68075;BME280;54864;52.002;5.468;2022-08-21T02:48:49;101485.22;;;16.63;68.67
68075;BME280;54864;52.002;5.468;2022-08-21T02:49:51;101490.78;;;16.74;68.61
68075;BME280;54864;52.002;5.468;2022-08-21T02:50:55;101490.97;;;16.71;68.44
68075;BME280;54864;52.002;5.468;2022-08-21T02:51:57;101484.88;;;16.69;68.63
68075;BME280;54864;52.002;5.468;2022-08-21T02:52:59;101480.59;;;16.67;68.71
68075;BME280;54864;52.002;5.468;2022-08-21T02:54:00;101481.78;;;16.61;68.67
68075;BME280;54864;52.002;5.468;2022-08-21T02:55:04;101480.84;;;16.62;68.55
68075;BME280;54864;52.002;5.468;2022-08-21T02:56:08;101481.59;;;16.64;68.65
68075;BME280;54864;52.002;5.468;2022-08-21T02:57:12;101475.75;;;16.73;68.69
68075;BME280;54864;52.002;5.468;2022-08-21T02:58:15;101481.00;;;16.75;68.38
68075;BME280;54864;52.002;5.468;2022-08-21T02:59:17;101481.19;;;16.72;68.31
68075;BME280;54864;52.002;5.468;2022-08-21T03:00:19;101481.66;;;16.78;68.25
68075;BME280;54864;52.002;5.468;2022-08-21T03:01:22;101482.91;;;16.73;68.61
68075;BME280;54864;52.002;5.468;2022-08-21T03:02:23;101481.28;;;16.70;68.66
68075;BME280;54864;52.002;5.468;2022-08-21T03:03:25;101479.66;;;16.68;68.81
68075;BME280;54864;52.002;5.468;2022-08-21T03:04:27;101484.13;;;16.67;68.51
68075;BME280;54864;52.002;5.468;2022-08-21T03:05:29;101477.16;;;16.65;68.85
68075;BME280;54864;52.002;5.468;2022-08-21T03:06:31;101488.84;;;16.62;69.02
68075;BME280;54864;52.002;5.468;2022-08-21T03:07:33;101484.81;;;16.55;69.29
68075;BME280;54864;52.002;5.468;2022-08-21T03:08:35;101480.19;;;16.59;69.20
68075;BME280;54864;52.002;5.468;2022-08-21T03:09:37;101480.75;;;16.64;68.85
68075;BME280;54864;52.002;5.468;2022-08-21T03:10:41;101485.13;;;16.65;68.77
68075;BME280;54864;52.002;5.468;2022-08-21T03:11:45;101478.94;;;16.64;68.92
68075;BME280;54864;52.002;5.468;2022-08-21T03:12:46;101475.44;;;16.64;68.91
68075;BME280;54864;52.002;5.468;2022-08-21T03:13:47;101468.94;;;16.54;68.83
68075;BME280;54864;52.002;5.468;2022-08-21T03:14:48;101468.56;;;16.60;68.92
68075;BME280;54864;52.002;5.468;2022-08-21T03:15:50;101490.03;;;16.72;68.65
68075;BME280;54864;52.002;5.468;2022-08-21T03:16:51;101480.41;;;16.70;68.69
68075;BME280;54864;52.002;5.468;2022-08-21T03:17:52;101479.66;;;16.68;68.74
68075;BME280;54864;52.002;5.468;2022-08-21T03:18:54;101478.88;;;16.66;68.80
68075;BME280;54864;52.002;5.468;2022-08-21T03:19:57;101478.09;;;16.64;68.81
68075;BME280;54864;52.002;5.468;2022-08-21T03:20:58;101484.03;;;16.69;68.61
68075;BME280;54864;52.002;5.468;2022-08-21T03:21:59;101473.56;;;16.66;68.64
68075;BME280;54864;52.002;5.468;2022-08-21T03:23:01;101485.94;;;16.67;68.50
68075;BME280;54864;52.002;5.468;2022-08-21T03:24:04;101476.66;;;16.58;68.57
68075;BME280;54864;52.002;5.468;2022-08-21T03:25:07;101463.03;;;16.48;68.52
68075;BME280;54864;52.002;5.468;2022-08-21T03:26:12;101473.22;;;16.56;68.43
68075;BME280;54864;52.002;5.468;2022-08-21T03:27:13;101476.56;;;16.60;68.22
68075;BME280;54864;52.002;5.468;2022-08-21T03:28:18;101470.28;;;16.61;68.42
68075;BME280;54864;52.002;5.468;2022-08-21T03:29:21;101466.69;;;16.62;68.59
68075;BME280;54864;52.002;5.468;2022-08-21T03:30:22;101473.13;;;16.58;68.34
68075;BME280;54864;52.002;5.468;2022-08-21T03:31:24;101468.00;;;16.55;68.71
68075;BME280;54864;52.002;5.468;2022-08-21T03:32:27;101469.53;;;16.59;68.58
68075;BME280;54864;52.002;5.468;2022-08-21T03:33:29;101463.94;;;16.63;68.32
68075;BME280;54864;52.002;5.468;2022-08-21T03:34:30;101467.38;;;16.65;68.48
68075;BME280;54864;52.002;5.468;2022-08-21T03:35:31;101463.16;;;16.61;68.54
68075;BME280;54864;52.002;5.468;2022-08-21T03:36:32;101471.50;;;16.55;68.62
68075;BME280;54864;52.002;5.468;2022-08-21T03:37:34;101461.81;;;16.54;68.72
68075;BME280;54864;52.002;5.468;2022-08-21T03:38:36;101462.59;;;16.56;68.62
68075;BME280;54864;52.002;5.468;2022-08-21T03:39:40;101460.00;;;16.55;68.82
68075;BME280;54864;52.002;5.468;2022-08-21T03:40:42;101461.91;;;16.53;68.90
68075;BME280;54864;52.002;5.468;2022-08-21T03:41:45;101456.69;;;16.51;68.90
68075;BME280;54864;52.002;5.468;2022-08-21T03:42:47;101460.97;;;16.54;68.79
68075;BME280;54864;52.002;5.468;2022-08-21T03:43:49;101455.63;;;16.54;68.86
68075;BME280;54864;52.002;5.468;2022-08-21T03:44:50;101461.34;;;16.62;68.83
68075;BME280;54864;52.002;5.468;2022-08-21T03:45:52;101453.81;;;16.54;68.74
68075;BME280;54864;52.002;5.468;2022-08-21T03:46:53;101450.88;;;16.59;69.01
68075;BME280;54864;52.002;5.468;2022-08-21T03:47:58;101446.50;;;16.58;68.76
68075;BME280;54864;52.002;5.468;2022-08-21T03:49:01;101452.88;;;16.55;68.69
68075;BME280;54864;52.002;5.468;2022-08-21T03:50:04;101454.78;;;16.53;69.00
68075;BME280;54864;52.002;5.468;2022-08-21T03:51:05;101449.63;;;16.50;68.99
68075;BME280;54864;52.002;5.468;2022-08-21T03:52:08;101448.13;;;16.46;69.22
68075;BME280;54864;52.002;5.468;2022-08-21T03:53:10;101455.06;;;16.48;69.33
68075;BME280;54864;52.002;5.468;2022-08-21T03:54:12;101457.63;;;16.50;69.15
68075;BME280;54864;52.002;5.468;2022-08-21T03:55:13;101459.81;;;16.58;68.93
68075;BME280;54864;52.002;5.468;2022-08-21T03:56:15;101458.03;;;16.58;68.73
68075;BME280;54864;52.002;5.468;2022-08-21T03:57:17;101460.28;;;16.50;69.10
68075;BME280;54864;52.002;5.468;2022-08-21T03:58:21;101452.13;;;16.53;68.91
68075;BME280;54864;52.002;5.468;2022-08-21T03:59:24;101445.72;;;16.41;68.97
68075;BME280;54864;52.002;5.468;2022-08-21T04:00:26;101463.81;;;16.51;69.06
68075;BME280;54864;52.002;5.468;2022-08-21T04:01:27;101454.78;;;16.53;68.66
68075;BME280;54864;52.002;5.468;2022-08-21T04:02:28;101459.63;;;16.46;69.00
68075;BME280;54864;52.002;5.468;2022-08-21T04:03:30;101458.09;;;16.42;69.13
68075;BME280;54864;52.002;5.468;2022-08-21T04:04:33;101462.56;;;16.42;68.99
68075;BME280;54864;52.002;5.468;2022-08-21T04:05:34;101463.22;;;16.45;69.04
68075;BME280;54864;52.002;5.468;2022-08-21T04:06:37;101465.97;;;16.44;68.96
68075;BME280;54864;52.002;5.468;2022-08-21T04:07:39;101464.94;;;16.46;69.00
68075;BME280;54864;52.002;5.468;2022-08-21T04:08:40;101453.63;;;16.43;68.82
68075;BME280;54864;52.002;5.468;2022-08-21T04:09:43;101468.47;;;16.47;69.01
68075;BME280;54864;52.002;5.468;2022-08-21T04:10:46;101461.31;;;16.47;68.88
68075;BME280;54864;52.002;5.468;2022-08-21T04:11:49;101471.69;;;16.52;68.66
68075;BME280;54864;52.002;5.468;2022-08-21T04:12:51;101462.09;;;16.49;68.63
68075;BME280;54864;52.002;5.468;2022-08-21T04:13:53;101462.19;;;16.48;68.71
68075;BME280;54864;52.002;5.468;2022-08-21T04:14:54;101461.06;;;16.52;68.44
68075;BME280;54864;52.002;5.468;2022-08-21T04:15:57;101462.94;;;16.50;68.43
68075;BME280;54864;52.002;5.468;2022-08-21T04:16:58;101472.72;;;16.35;68.62
68075;BME280;54864;52.002;5.468;2022-08-21T04:18:00;101467.28;;;16.37;68.82
68075;BME280;54864;52.002;5.468;2022-08-21T04:19:02;101462.59;;;16.26;69.06
68075;BME280;54864;52.002;5.468;2022-08-21T04:20:04;101469.59;;;16.43;68.68
68075;BME280;54864;52.002;5.468;2022-08-21T04:21:07;101469.09;;;16.36;68.75
68075;BME280;54864;52.002;5.468;2022-08-21T04:22:11;101469.19;;;16.35;68.77
68075;BME280;54864;52.002;5.468;2022-08-21T04:23:12;101471.16;;;16.31;68.95
68075;BME280;54864;52.002;5.468;2022-08-21T04:24:13;101469.00;;;16.38;68.66
68075;BME280;54864;52.002;5.468;2022-08-21T04:25:15;101470.31;;;16.31;69.04
68075;BME280;54864;52.002;5.468;2022-08-21T04:26:17;101464.81;;;16.34;68.89
68075;BME280;54864;52.002;5.468;2022-08-21T04:27:18;101465.19;;;16.28;68.94
68075;BME280;54864;52.002;5.468;2022-08-21T04:28:22;101473.25;;;16.26;68.92
68075;BME280;54864;52.002;5.468;2022-08-21T04:29:23;101462.59;;;16.26;68.83
68075;BME280;54864;52.002;5.468;2022-08-21T04:30:25;101460.44;;;16.33;68.52
68075;BME280;54864;52.002;5.468;2022-08-21T04:31:26;101465.94;;;16.30;68.62
68075;BME280;54864;52.002;5.468;2022-08-21T04:32:29;101468.94;;;16.24;69.08
68075;BME280;54864;52.002;5.468;2022-08-21T04:33:31;101460.09;;;16.23;68.97
68075;BME280;54864;52.002;5.468;2022-08-21T04:34:33;101450.84;;;16.14;69.03
68075;BME280;54864;52.002;5.468;2022-08-21T04:35:33;101461.56;;;16.29;68.85
68075;BME280;54864;52.002;5.468;2022-08-21T04:36:35;101467.91;;;16.26;68.77
68075;BME280;54864;52.002;5.468;2022-08-21T04:37:36;101466.03;;;16.28;68.80
68075;BME280;54864;52.002;5.468;2022-08-21T04:38:38;101464.47;;;16.24;68.72
68075;BME280;54864;52.002;5.468;2022-08-21T04:39:38;101464.31;;;16.27;68.74
68075;BME280;54864;52.002;5.468;2022-08-21T04:40:40;101470.66;;;16.25;68.96
68075;BME280;54864;52.002;5.468;2022-08-21T04:41:42;101471.50;;;16.25;68.97
68075;BME280;54864;52.002;5.468;2022-08-21T04:42:45;101472.53;;;16.23;68.78
68075;BME280;54864;52.002;5.468;2022-08-21T04:43:50;101467.22;;;16.23;68.79
68075;BME280;54864;52.002;5.468;2022-08-21T04:44:52;101460.44;;;16.17;68.95
68075;BME280;54864;52.002;5.468;2022-08-21T04:45:53;101474.78;;;16.30;68.62
68075;BME280;54864;52.002;5.468;2022-08-21T04:46:55;101468.25;;;16.20;68.73
68075;BME280;54864;52.002;5.468;2022-08-21T04:47:57;101472.97;;;16.15;68.83
68075;BME280;54864;52.002;5.468;2022-08-21T04:49:00;101468.84;;;16.25;68.64
68075;BME280;54864;52.002;5.468;2022-08-21T04:50:02;101468.06;;;16.23;68.69
68075;BME280;54864;52.002;5.468;2022-08-21T04:51:08;101478.22;;;16.16;68.96
68075;BME280;54864;52.002;5.468;2022-08-21T04:52:15;101467.56;;;16.16;68.91
68075;BME280;54864;52.002;5.468;2022-08-21T04:53:20;101470.72;;;16.23;68.80
68075;BME280;54864;52.002;5.468;2022-08-21T04:54:24;101469.78;;;16.24;68.63
68075;BME280;54864;52.002;5.468;2022-08-21T04:55:25;101470.16;;;16.18;68.91
68075;BME280;54864;52.002;5.468;2022-08-21T04:56:35;101470.81;;;16.22;68.72
68075;BME280;54864;52.002;5.468;2022-08-21T04:57:41;101462.44;;;16.13;68.67
68075;BME280;54864;52.002;5.468;2022-08-21T04:58:43;101470.06;;;16.20;68.94
68075;BME280;54864;52.002;5.468;2022-08-21T04:59:48;101461.41;;;16.16;69.06
68075;BME280;54864;52.002;5.468;2022-08-21T05:00:54;101467.22;;;16.23;69.19
68075;BME280;54864;52.002;5.468;2022-08-21T05:01:57;101463.78;;;16.21;69.14
68075;BME280;54864;52.002;5.468;2022-08-21T05:02:59;101472.44;;;16.24;68.92
68075;BME280;54864;52.002;5.468;2022-08-21T05:04:03;101467.91;;;16.26;68.98
68075;BME280;54864;52.002;5.468;2022-08-21T05:05:06;101458.47;;;16.21;69.04
68075;BME280;54864;52.002;5.468;2022-08-21T05:06:10;101465.19;;;16.12;69.57
68075;BME280;54864;52.002;5.468;2022-08-21T05:07:18;101471.09;;;16.17;69.37
68075;BME280;54864;52.002;5.468;2022-08-21T05:08:22;101470.31;;;16.15;69.38
68075;BME280;54864;52.002;5.468;2022-08-21T05:09:26;101473.47;;;16.22;69.48
68075;BME280;54864;52.002;5.468;2022-08-21T05:10:28;101467.97;;;16.25;69.18
68075;BME280;54864;52.002;5.468;2022-08-21T05:11:32;101471.69;;;16.22;69.39
68075;BME280;54864;52.002;5.468;2022-08-21T05:12:33;101475.09;;;16.24;69.32
68075;BME280;54864;52.002;5.468;2022-08-21T05:13:36;101471.50;;;16.25;69.32
68075;BME280;54864;52.002;5.468;2022-08-21T05:14:37;101471.44;;;16.27;69.42
68075;BME280;54864;52.002;5.468;2022-08-21T05:15:40;101478.38;;;16.29;69.39
68075;BME280;54864;52.002;5.468;2022-08-21T05:16:42;101476.31;;;16.34;69.21
68075;BME280;54864;52.002;5.468;2022-08-21T05:17:44;101479.75;;;16.36;68.89
68075;BME280;54864;52.002;5.468;2022-08-21T05:18:46;101479.16;;;16.31;68.97
68075;BME280;54864;52.002;5.468;2022-08-21T05:19:47;101488.94;;;16.31;69.22
68075;BME280;54864;52.002;5.468;2022-08-21T05:20:49;101484.13;;;16.22;69.34
68075;BME280;54864;52.002;5.468;2022-08-21T05:21:51;101491.06;;;16.24;70.01
68075;BME280;54864;52.002;5.468;2022-08-21T05:22:53;101486.88;;;16.20;69.62
68075;BME280;54864;52.002;5.468;2022-08-21T05:23:54;101491.25;;;16.21;69.70
68075;BME280;54864;52.002;5.468;2022-08-21T05:24:57;101488.69;;;16.20;69.93
68075;BME280;54864;52.002;5.468;2022-08-21T05:25:58;101501.97;;;16.35;69.23
68075;BME280;54864;52.002;5.468;2022-08-21T05:27:02;101492.56;;;16.30;69.26